Time;durP1;ratioP1;P1;durP2;ratioP2;P2;SDS_P1;SDS_P2;PMS_P1;PMS_P2;Temp;Humidity;BMP_temperature;BMP_pressure;BME280_temperature;BME280_humidity;BME280_pressure;Samples;Min_cycle;Max_cycle;Signal;HPM_P1;HPM_P2
2023/01/18 00:00:13;;;;;;;20.83;13.10;;;1.00;99.90;;;;;;10299208;28;20201;-78
2023/01/18 00:05:39;;;;;;;26.53;13.70;;;0.90;99.90;;;;;;10297173;28;20194;-80
2023/01/18 00:11:02;;;;;;;15.90;9.37;;;0.80;99.90;;;;;;10296702;28;20524;-79
2023/01/18 00:16:25;;;;;;;20.47;10.77;;;0.70;99.90;;;;;;10305336;28;20206;-79
2023/01/18 00:21:46;;;;;;;19.93;11.37;;;0.60;99.90;;;;;;10334404;28;20284;-77
2023/01/18 00:27:09;;;;;;;20.53;10.80;;;0.60;99.90;;;;;;10327461;28;20206;-80
2023/01/18 00:32:32;;;;;;;22.10;12.40;;;0.50;99.90;;;;;;10318093;28;20246;-80
2023/01/18 00:37:53;;;;;;;23.30;13.37;;;0.50;99.90;;;;;;10321232;28;20191;-78
2023/01/18 00:48:57;;;;;;;21.57;12.50;;;0.40;99.90;;;;;;10302333;28;20203;-79
2023/01/18 00:54:18;;;;;;;18.00;12.27;;;0.50;99.90;;;;;;10320190;28;20191;-79
2023/01/18 00:59:39;;;;;;;22.70;14.00;;;0.50;99.90;;;;;;10318895;28;20311;-79
2023/01/18 01:10:40;;;;;;;15.23;8.30;;;0.40;99.90;;;;;;10319627;28;20280;-77
2023/01/18 01:27:25;;;;;;;10.70;7.27;;;0.40;99.90;;;;;;10317689;28;20209;-79
2023/01/18 01:32:46;;;;;;;9.43;6.50;;;0.40;99.90;;;;;;10238496;29;20234;-78
2023/01/18 01:38:07;;;;;;;8.03;5.43;;;0.40;99.90;;;;;;10238845;29;20192;-78
2023/01/18 01:43:50;;;;;;;9.10;5.33;;;0.50;99.90;;;;;;10237670;29;20187;-78
2023/01/18 01:49:16;;;;;;;9.33;6.13;;;0.50;99.90;;;;;;10236356;29;20263;-78
2023/01/18 01:54:43;;;;;;;16.23;9.37;;;0.60;99.90;;;;;;10253097;29;20211;-77
2023/01/18 02:00:11;;;;;;;19.83;11.07;;;0.70;99.90;;;;;;10250656;29;20200;-77
2023/01/18 02:05:39;;;;;;;19.93;11.10;;;0.70;99.90;;;;;;10236925;29;20595;-77
2023/01/18 02:11:00;;;;;;;18.37;10.60;;;0.70;99.90;;;;;;10252000;29;20242;-77
2023/01/18 02:16:21;;;;;;;17.10;9.73;;;0.70;99.90;;;;;;10198104;29;20295;-77
2023/01/18 02:21:52;;;;;;;18.60;9.47;;;0.80;99.90;;;;;;10223608;29;20215;-78
2023/01/18 02:27:42;;;;;;;18.37;10.20;;;0.80;99.90;;;;;;10249549;29;20215;-77
2023/01/18 02:33:03;;;;;;;18.13;9.33;;;0.80;99.90;;;;;;10315266;28;20589;-78
2023/01/18 02:38:33;;;;;;;16.00;8.63;;;1.00;99.90;;;;;;10315115;28;20208;-77
2023/01/18 02:49:35;;;;;;;16.90;9.50;;;0.90;99.90;;;;;;10315839;28;20210;-77
2023/01/18 02:54:57;;;;;;;14.10;9.20;;;1.00;99.90;;;;;;10284330;28;20213;-78
2023/01/18 03:00:22;;;;;;;12.87;8.70;;;1.00;99.90;;;;;;10314550;28;20500;-79
2023/01/18 03:05:46;;;;;;;12.00;7.50;;;0.90;99.90;;;;;;10314601;28;20191;-78
2023/01/18 03:11:14;;;;;;;12.13;7.60;;;0.90;99.90;;;;;;10302111;28;20240;-78
2023/01/18 03:17:04;;;;;;;16.20;9.30;;;0.80;99.90;;;;;;10315081;28;20205;-78
2023/01/18 03:34:13;;;;;;;39.70;13.03;;;0.70;99.90;;;;;;10274815;28;20292;-80
2023/01/18 03:39:39;;;;;;;29.90;13.13;;;0.70;99.90;;;;;;10279909;28;20225;-79
2023/01/18 03:45:14;;;;;;;21.93;10.77;;;0.70;99.90;;;;;;10314499;28;20241;-79
2023/01/18 03:51:01;;;;;;;21.73;10.63;;;0.60;99.90;;;;;;10319978;28;20226;-80
2023/01/18 03:56:42;;;;;;;16.63;9.83;;;0.60;99.90;;;;;;10293696;28;20252;-79
2023/01/18 04:02:05;;;;;;;14.90;9.47;;;0.60;99.90;;;;;;10321036;28;20195;-81
2023/01/18 04:07:26;;;;;;;12.07;8.30;;;0.60;99.90;;;;;;10322130;28;20379;-79
2023/01/18 04:12:47;;;;;;;10.30;7.20;;;0.70;99.90;;;;;;10319443;28;20235;-79
2023/01/18 04:18:08;;;;;;;12.83;8.27;;;0.70;99.90;;;;;;10328574;28;20196;-80
2023/01/18 04:23:29;;;;;;;11.77;7.50;;;0.70;99.90;;;;;;10356843;28;20516;-77
2023/01/18 04:28:50;;;;;;;10.43;7.43;;;0.60;99.90;;;;;;10296735;28;20270;-80
2023/01/18 04:34:11;;;;;;;10.30;7.03;;;0.60;99.90;;;;;;10303582;28;20419;-79
2023/01/18 04:39:32;;;;;;;10.97;7.63;;;0.50;99.90;;;;;;10290866;28;20265;-80
2023/01/18 04:44:53;;;;;;;15.37;10.10;;;0.50;99.90;;;;;;10320340;28;20239;-79
2023/01/18 04:50:14;;;;;;;22.40;12.60;;;0.60;99.90;;;;;;10317422;28;20223;-80
2023/01/18 04:55:35;;;;;;;19.93;11.00;;;0.60;99.90;;;;;;10305825;28;20196;-79
2023/01/18 05:01:00;;;;;;;19.43;10.90;;;0.60;99.90;;;;;;10287440;28;20402;-80
2023/01/18 05:06:23;;;;;;;18.97;11.50;;;0.70;99.90;;;;;;10318454;28;20407;-79
2023/01/18 05:11:44;;;;;;;21.03;12.50;;;0.70;99.90;;;;;;10319141;28;20224;-79
2023/01/18 05:17:06;;;;;;;17.77;11.90;;;0.80;99.90;;;;;;10295118;28;20700;-79
2023/01/18 05:22:27;;;;;;;18.37;11.70;;;0.70;99.90;;;;;;10288502;28;20206;-80
2023/01/18 05:27:49;;;;;;;19.40;11.60;;;0.70;99.90;;;;;;10318237;28;20282;-78
2023/01/18 05:33:10;;;;;;;22.57;13.57;;;0.60;99.90;;;;;;10316463;28;20393;-80
2023/01/18 05:38:32;;;;;;;24.37;14.03;;;0.60;99.90;;;;;;10317332;28;20201;-79
2023/01/18 05:43:53;;;;;;;25.63;14.97;;;0.50;99.90;;;;;;10290893;28;20241;-80
2023/01/18 05:49:17;;;;;;;37.00;21.13;;;0.40;99.90;;;;;;10293544;28;20210;-78
2023/01/18 05:54:38;;;;;;;43.33;23.57;;;0.40;99.90;;;;;;10316426;28;20408;-80
2023/01/18 06:00:01;;;;;;;42.80;24.87;;;0.40;99.90;;;;;;10308137;28;20280;-79
2023/01/18 06:05:31;;;;;;;27.10;16.00;;;0.50;99.90;;;;;;10304527;28;20207;-79
2023/01/18 06:10:57;;;;;;;26.70;15.77;;;0.40;99.90;;;;;;10316433;28;20242;-79
2023/01/18 06:16:18;;;;;;;29.47;16.20;;;0.40;99.90;;;;;;10316067;28;20206;-80
2023/01/18 06:21:39;;;;;;;31.47;17.67;;;0.40;99.90;;;;;;10315996;28;20213;-80
2023/01/18 06:27:01;;;;;;;35.57;18.80;;;0.40;99.90;;;;;;10316182;28;20207;-79
2023/01/18 06:32:23;;;;;;;42.43;21.80;;;0.50;99.90;;;;;;10301587;28;20248;-80
2023/01/18 06:37:45;;;;;;;42.37;19.87;;;0.60;99.90;;;;;;10298372;28;20201;-79
2023/01/18 06:43:12;;;;;;;54.33;25.70;;;0.60;99.90;;;;;;10314773;28;20436;-78
2023/01/18 06:48:34;;;;;;;49.60;26.37;;;0.60;99.90;;;;;;10300904;28;20569;-79
2023/01/18 06:53:55;;;;;;;50.90;25.97;;;0.60;99.90;;;;;;10275567;28;20225;-78
2023/01/18 06:59:16;;;;;;;49.73;27.23;;;0.50;99.90;;;;;;10304529;28;20205;-79
2023/01/18 07:04:42;;;;;;;52.60;26.50;;;0.60;99.90;;;;;;10313666;28;20283;-80
2023/01/18 07:10:04;;;;;;;50.77;25.07;;;0.60;99.90;;;;;;10314168;28;20214;-79
2023/01/18 07:15:24;;;;;;;43.00;23.90;;;0.60;99.90;;;;;;10314014;28;20560;-80
2023/01/18 07:20:46;;;;;;;54.60;26.50;;;0.50;99.90;;;;;;10327016;28;20289;-79
2023/01/18 07:26:10;;;;;;;49.60;24.83;;;0.50;99.90;;;;;;10312905;28;20222;-79
2023/01/18 07:31:31;;;;;;;56.17;25.90;;;0.50;99.90;;;;;;10313209;28;20252;-79
2023/01/18 07:36:53;;;;;;;56.37;27.80;;;0.60;99.90;;;;;;10296383;28;20205;-79
2023/01/18 07:42:14;;;;;;;56.57;25.87;;;0.70;99.90;;;;;;10314462;28;20274;-80
2023/01/18 07:47:35;;;;;;;73.00;32.87;;;0.80;99.90;;;;;;10313814;28;20305;-79
2023/01/18 07:53:03;;;;;;;72.70;32.90;;;0.80;99.90;;;;;;10302317;28;20232;-79
2023/01/18 07:58:24;;;;;;;70.47;32.67;;;0.80;99.90;;;;;;10299901;28;20225;-76
2023/01/18 08:03:47;;;;;;;60.13;31.23;;;0.90;99.90;;;;;;10312826;28;20500;-79
2023/01/18 08:09:08;;;;;;;57.87;30.77;;;0.90;99.00;;;;;;10296000;28;20238;-79
2023/01/18 08:14:29;;;;;;;45.30;22.63;;;1.10;91.40;;;;;;10296114;28;20259;-79
2023/01/18 08:19:51;;;;;;;41.13;22.07;;;1.00;53.40;;;;;;10312632;28;20205;-79
2023/01/18 08:25:12;;;;;;;53.53;28.47;;;1.00;49.20;;;;;;10313699;28;20253;-79
2023/01/18 08:30:36;;;;;;;60.37;30.67;;;1.00;57.90;;;;;;10286588;28;20590;-77
2023/01/18 08:35:57;;;;;;;42.53;26.03;;;1.10;52.00;;;;;;10307388;28;20208;-80
2023/01/18 08:41:19;;;;;;;39.50;22.03;;;1.10;51.00;;;;;;10319964;28;20262;-79
2023/01/18 08:46:41;;;;;;;35.83;19.53;;;1.20;49.10;;;;;;10354978;28;20506;-79
2023/01/18 08:52:02;;;;;;;41.07;21.33;;;1.40;39.60;;;;;;10310030;28;20237;-79
2023/01/18 08:57:23;;;;;;;66.87;30.17;;;1.50;32.90;;;;;;10288069;28;20186;-78
2023/01/18 09:02:44;;;;;;;56.87;28.90;;;1.60;25.50;;;;;;10314151;28;20256;-79
2023/01/18 09:08:05;;;;;;;46.73;24.70;;;1.70;23.70;;;;;;10277387;28;20420;-82
2023/01/18 09:13:26;;;;;;;51.03;27.27;;;1.80;13.20;;;;;;10312814;28;20230;-78
2023/01/18 09:18:49;;;;;;;57.30;28.43;;;1.80;1.00;;;;;;10313608;28;20202;-79
2023/01/18 09:24:10;;;;;;;60.03;29.20;;;1.90;1.00;;;;;;10312387;28;20215;-78
2023/01/18 09:29:31;;;;;;;71.23;36.37;;;2.00;1.00;;;;;;10314078;28;20247;-79
2023/01/18 09:34:52;;;;;;;55.43;30.13;;;2.00;1.00;;;;;;10311361;28;20233;-82
2023/01/18 09:40:20;;;;;;;46.83;25.53;;;2.10;1.00;;;;;;10281101;28;20209;-78
2023/01/18 09:45:44;;;;;;;47.73;24.13;;;2.20;1.00;;;;;;10298147;28;20203;-78
2023/01/18 09:51:19;;;;;;;34.97;19.10;;;2.40;1.00;;;;;;10297975;28;20230;-78
2023/01/18 09:56:53;;;;;;;32.57;17.37;;;2.30;1.00;;;;;;10294977;28;20502;-80
2023/01/18 10:02:37;;;;;;;82.97;38.30;;;2.40;1.00;;;;;;10261635;28;20243;-83
2023/01/18 10:08:12;;;;;;;94.83;39.83;;;2.50;1.00;;;;;;10308499;28;20209;-78
2023/01/18 10:13:55;;;;;;;89.73;34.57;;;2.70;1.00;;;;;;10334980;28;20292;-81
2023/01/18 10:19:23;;;;;;;78.17;31.83;;;2.90;1.00;;;;;;10295182;28;20214;-81
2023/01/18 10:24:50;;;;;;;66.97;27.90;;;3.00;1.00;;;;;;10309547;28;20221;-78
2023/01/18 10:30:51;;;;;;;43.17;20.93;;;3.00;1.00;;;;;;10273902;28;20255;-79
2023/01/18 10:36:38;;;;;;;53.33;23.80;;;3.10;1.00;;;;;;10289519;28;20208;-79
2023/01/18 10:42:02;;;;;;;56.17;24.33;;;3.20;1.00;;;;;;10295267;28;20238;-80
2023/01/18 10:47:26;;;;;;;58.80;24.87;;;3.20;1.00;;;;;;10269337;28;20276;-80
2023/01/18 10:52:48;;;;;;;50.03;21.00;;;3.20;1.00;;;;;;10272462;28;20254;-79
2023/01/18 10:58:12;;;;;;;63.93;23.10;;;3.20;1.00;;;;;;10265972;28;20195;-80
2023/01/18 11:03:43;;;;;;;68.87;26.27;;;3.20;1.00;;;;;;10291336;28;20228;-79
2023/01/18 11:09:05;;;;;;;89.27;40.27;;;3.30;1.00;;;;;;10256473;28;20208;-84
2023/01/18 11:14:29;;;;;;;58.97;30.33;;;3.40;1.00;;;;;;10269860;28;20889;-80
2023/01/18 11:20:05;;;;;;;66.37;32.70;;;3.40;1.00;;;;;;10260836;28;20217;-81
2023/01/18 11:25:46;;;;;;;176.20;71.60;;;3.60;1.00;;;;;;10301671;28;20764;-81
2023/01/18 11:31:18;;;;;;;63.93;34.27;;;3.80;1.00;;;;;;10308954;28;20239;-81
2023/01/18 11:36:43;;;;;;;39.70;22.17;;;3.90;1.00;;;;;;10265434;28;20359;-80
2023/01/18 11:42:30;;;;;;;38.40;20.27;;;3.90;1.00;;;;;;10273573;28;20539;-79
2023/01/18 11:48:05;;;;;;;43.30;19.93;;;3.70;1.00;;;;;;10291800;28;20283;-80
2023/01/18 11:53:48;;;;;;;40.43;22.63;;;3.60;1.00;;;;;;10293169;28;20222;-79
2023/01/18 11:59:23;;;;;;;45.20;21.33;;;3.50;1.00;;;;;;10305752;28;20405;-80
2023/01/18 12:05:24;;;;;;;48.50;24.93;;;3.40;1.00;;;;;;10292048;28;20386;-79
2023/01/18 12:10:49;;;;;;;43.70;22.03;;;3.40;1.00;;;;;;10254021;28;20246;-82
2023/01/18 12:16:23;;;;;;;65.20;27.10;;;3.40;1.00;;;;;;10275238;28;20210;-82
2023/01/18 12:21:45;;;;;;;61.23;28.67;;;3.40;1.00;;;;;;10285941;28;20266;-81
2023/01/18 12:27:21;;;;;;;71.77;27.77;;;3.30;1.00;;;;;;10301747;28;20505;-82
2023/01/18 12:33:10;;;;;;;51.87;23.03;;;3.30;1.00;;;;;;10304665;28;20277;-78
2023/01/18 12:38:32;;;;;;;52.77;23.73;;;3.30;1.00;;;;;;10302253;28;20416;-78
2023/01/18 12:44:12;;;;;;;49.77;22.53;;;3.30;1.00;;;;;;10320011;28;20215;-84
2023/01/18 12:49:39;;;;;;;55.57;29.17;;;3.30;1.00;;;;;;10249788;28;20312;-83
2023/01/18 12:55:04;;;;;;;51.47;24.87;;;3.30;1.00;;;;;;10283389;28;20461;-83
2023/01/18 13:00:35;;;;;;;51.27;23.47;;;3.20;1.00;;;;;;10281634;28;20511;-79
2023/01/18 13:06:02;;;;;;;43.93;22.30;;;3.10;1.00;;;;;;10256663;28;20514;-81
2023/01/18 13:11:40;;;;;;;44.67;22.60;;;3.00;1.00;;;;;;10255631;28;20238;-79
2023/01/18 13:17:19;;;;;;;59.23;31.90;;;2.90;1.00;;;;;;10295362;28;20226;-79
2023/01/18 13:23:06;;;;;;;69.27;35.57;;;3.00;1.00;;;;;;10295602;28;20318;-79
2023/01/18 13:28:27;;;;;;;44.23;20.93;;;3.00;1.00;;;;;;10312934;28;20472;-83
2023/01/18 13:33:56;;;;;;;32.23;14.47;;;3.00;1.00;;;;;;10281385;28;20538;-80
2023/01/18 13:39:18;;;;;;;29.90;13.43;;;2.90;1.00;;;;;;10285578;28;20226;-79
2023/01/18 13:44:46;;;;;;;31.70;16.50;;;2.80;1.00;;;;;;10310660;28;20207;-80
2023/01/18 13:50:38;;;;;;;36.20;18.97;;;2.80;1.00;;;;;;10282519;28;20195;-79
2023/01/18 13:55:59;;;;;;;42.73;21.00;;;2.90;1.00;;;;;;10283555;28;20215;-79
2023/01/18 14:01:23;;;;;;;36.67;17.07;;;2.80;1.00;;;;;;10310412;28;20221;-79
2023/01/18 14:06:45;;;;;;;35.13;16.17;;;2.80;1.00;;;;;;10294947;28;20282;-79
2023/01/18 14:12:08;;;;;;;36.60;17.30;;;2.80;1.00;;;;;;10312102;28;20248;-80
2023/01/18 14:17:32;;;;;;;38.37;16.70;;;2.70;1.00;;;;;;10306950;28;20206;-78
2023/01/18 14:23:21;;;;;;;33.07;13.77;;;2.60;1.00;;;;;;10293980;28;20229;-79
2023/01/18 14:29:11;;;;;;;24.13;12.20;;;2.60;1.00;;;;;;10303784;28;20285;-80
2023/01/18 14:34:36;;;;;;;26.93;13.03;;;2.50;1.00;;;;;;10293493;28;20336;-80
2023/01/18 14:40:22;;;;;;;32.37;15.33;;;2.50;1.00;;;;;;10310784;28;20214;-79
2023/01/18 14:46:03;;;;;;;37.40;18.03;;;2.40;1.00;;;;;;10293723;28;20210;-80
2023/01/18 14:51:27;;;;;;;24.73;13.80;;;2.40;1.00;;;;;;10287994;28;20603;-80
2023/01/18 14:57:03;;;;;;;39.20;21.00;;;2.30;1.00;;;;;;10309772;28;20253;-82
2023/01/18 15:02:27;;;;;;;59.60;29.63;;;2.20;1.00;;;;;;10293332;28;20497;-79
2023/01/18 15:07:54;;;;;;;124.27;60.23;;;2.20;1.00;;;;;;10278623;28;20214;-79
2023/01/18 15:13:17;;;;;;;76.37;38.77;;;2.10;1.00;;;;;;10322364;28;20430;-79
2023/01/18 15:18:40;;;;;;;60.87;33.67;;;2.10;1.00;;;;;;10309525;28;20592;-79
2023/01/18 15:24:04;;;;;;;62.93;35.27;;;2.10;1.00;;;;;;10307606;28;20495;-78
2023/01/18 15:29:30;;;;;;;101.20;49.23;;;2.10;2.40;;;;;;10314909;28;20281;-79
2023/01/18 15:34:53;;;;;;;54.40;25.70;;;2.10;15.30;;;;;;10290885;28;20241;-81
2023/01/18 15:40:15;;;;;;;57.90;24.40;;;2.10;13.80;;;;;;10275710;28;20583;-80
2023/01/18 15:45:39;;;;;;;60.70;28.37;;;2.10;11.20;;;;;;10296284;28;20558;-80
2023/01/18 15:51:07;;;;;;;80.43;39.10;;;2.10;16.30;;;;;;10301729;28;20197;-78
2023/01/18 15:56:29;;;;;;;75.10;33.30;;;2.10;30.80;;;;;;10285381;28;20222;-79
2023/01/18 16:02:20;;;;;;;82.70;37.90;;;2.10;29.30;;;;;;10316562;28;20201;-80
2023/01/18 16:07:41;;;;;;;75.63;37.03;;;2.20;21.70;;;;;;10304203;28;20204;-81
2023/01/18 16:13:24;;;;;;;69.00;33.90;;;2.10;16.50;;;;;;10313193;28;20229;-80
2023/01/18 16:18:50;;;;;;;56.67;28.17;;;2.20;18.80;;;;;;10318154;28;20198;-79
2023/01/18 16:24:26;;;;;;;70.07;36.20;;;2.20;17.80;;;;;;10318814;28;20517;-80
2023/01/18 16:29:58;;;;;;;83.40;41.70;;;2.20;10.80;;;;;;10278592;28;20245;-78
2023/01/18 16:35:21;;;;;;;72.70;37.83;;;2.10;8.50;;;;;;10317366;28;20227;-78
2023/01/18 16:40:45;;;;;;;74.47;37.47;;;2.10;1.80;;;;;;10279885;28;20206;-79
2023/01/18 16:46:06;;;;;;;75.80;39.63;;;2.10;1.80;;;;;;10307830;28;20203;-79
2023/01/18 16:51:27;;;;;;;83.43;40.47;;;2.00;1.20;;;;;;10317686;28;20297;-79
2023/01/18 16:56:49;;;;;;;74.83;34.60;;;2.00;2.90;;;;;;10319182;28;20265;-79
2023/01/18 17:02:10;;;;;;;72.10;30.27;;;2.00;4.10;;;;;;10304060;28;20281;-78
2023/01/18 17:07:31;;;;;;;52.77;25.17;;;2.00;16.00;;;;;;10319425;28;20231;-80
2023/01/18 17:12:52;;;;;;;40.17;19.87;;;2.00;3.80;;;;;;10304753;28;20279;-78
2023/01/18 17:18:16;;;;;;;35.93;18.23;;;1.90;10.80;;;;;;10316274;28;20190;-79
2023/01/18 17:23:40;;;;;;;34.23;18.17;;;1.90;9.10;;;;;;10301317;28;20196;-79
2023/01/18 17:29:02;;;;;;;36.40;20.17;;;1.90;12.00;;;;;;10318972;28;20559;-78
2023/01/18 17:34:24;;;;;;;39.30;21.23;;;2.00;4.90;;;;;;10317047;28;20571;-79
2023/01/18 17:39:46;;;;;;;43.57;21.07;;;2.00;1.00;;;;;;10277705;28;20214;-79
2023/01/18 17:45:22;;;;;;;43.83;20.73;;;1.90;1.00;;;;;;10278367;28;20198;-79
2023/01/18 17:50:43;;;;;;;44.87;21.37;;;1.90;1.00;;;;;;10310729;28;20253;-79
2023/01/18 17:56:12;;;;;;;44.93;19.87;;;1.80;1.00;;;;;;10317982;28;20225;-79
2023/01/18 18:01:33;;;;;;;59.83;28.40;;;1.80;2.00;;;;;;10314785;28;20520;-79
2023/01/18 18:06:57;;;;;;;57.93;27.27;;;1.80;1.00;;;;;;10316464;28;20207;-79
2023/01/18 18:12:18;;;;;;;60.47;28.63;;;1.80;1.00;;;;;;10317311;28;20224;-78
2023/01/18 18:17:39;;;;;;;85.23;36.23;;;1.70;1.00;;;;;;10315151;28;20204;-80
2023/01/18 18:23:00;;;;;;;50.73;25.20;;;1.70;1.00;;;;;;10302570;28;20233;-78
2023/01/18 18:28:23;;;;;;;49.73;23.67;;;1.70;1.00;;;;;;10315202;28;20234;-79
2023/01/18 18:33:44;;;;;;;47.97;21.47;;;1.70;1.00;;;;;;10301402;28;20233;-79
2023/01/18 18:39:07;;;;;;;40.10;19.20;;;1.70;2.20;;;;;;10316260;28;20190;-80
2023/01/18 18:44:28;;;;;;;28.93;16.10;;;1.60;1.00;;;;;;10315112;28;20212;-79
2023/01/18 18:49:49;;;;;;;30.47;16.23;;;1.60;1.00;;;;;;10300913;28;20285;-79
2023/01/18 18:55:10;;;;;;;50.57;22.33;;;1.50;1.00;;;;;;10315732;28;20229;-79
2023/01/18 19:00:31;;;;;;;52.47;21.77;;;1.50;1.00;;;;;;10315502;28;20193;-80
2023/01/18 19:05:52;;;;;;;47.47;21.00;;;1.50;2.30;;;;;;10312342;28;20212;-79
2023/01/18 19:11:14;;;;;;;38.80;20.10;;;1.40;7.00;;;;;;10330517;28;20427;-80
2023/01/18 19:16:36;;;;;;;31.03;17.90;;;1.50;5.80;;;;;;10327321;28;20370;-79
2023/01/18 19:21:56;;;;;;;27.40;16.10;;;1.40;6.60;;;;;;10313286;28;20200;-80
2023/01/18 19:27:19;;;;;;;32.80;18.57;;;1.50;8.10;;;;;;10313363;28;20201;-80
2023/01/18 19:32:41;;;;;;;31.03;17.07;;;1.50;11.50;;;;;;10314916;28;20234;-79
2023/01/18 19:38:01;;;;;;;32.37;15.93;;;1.40;5.50;;;;;;10310005;28;20493;-79
2023/01/18 19:43:23;;;;;;;36.40;17.03;;;1.50;12.30;;;;;;10314914;28;20197;-79
2023/01/18 19:48:44;;;;;;;39.07;17.47;;;1.50;9.40;;;;;;10314702;28;20263;-78
2023/01/18 19:54:05;;;;;;;43.73;19.27;;;1.50;8.00;;;;;;10312710;28;20480;-80
2023/01/18 19:59:26;;;;;;;46.73;22.00;;;1.50;7.60;;;;;;10313426;28;20194;-78
2023/01/18 20:04:48;;;;;;;41.93;19.53;;;1.50;4.00;;;;;;10314453;28;20199;-79
2023/01/18 20:10:10;;;;;;;40.90;17.57;;;1.50;6.50;;;;;;10295780;28;20233;-78
2023/01/18 20:15:31;;;;;;;52.70;20.77;;;1.50;6.30;;;;;;10311942;28;20233;-80
2023/01/18 20:20:52;;;;;;;48.23;19.90;;;1.50;4.90;;;;;;10307620;28;20212;-78
2023/01/18 20:26:16;;;;;;;54.87;25.13;;;1.50;2.80;;;;;;10313866;28;20269;-79
2023/01/18 20:31:44;;;;;;;39.10;19.87;;;1.60;16.80;;;;;;10316627;28;20242;-79
2023/01/18 20:37:13;;;;;;;31.93;17.47;;;1.50;7.60;;;;;;10306636;28;20503;-78
2023/01/18 20:42:34;;;;;;;31.03;14.10;;;1.60;1.00;;;;;;10320825;28;20240;-78
2023/01/18 20:47:56;;;;;;;21.30;13.07;;;1.50;5.40;;;;;;10319658;28;20241;-79
2023/01/18 20:53:17;;;;;;;20.77;10.43;;;1.50;1.00;;;;;;10317664;28;20237;-78
2023/01/18 20:58:38;;;;;;;16.90;10.73;;;1.50;1.00;;;;;;10319681;28;20241;-79
2023/01/18 21:04:01;;;;;;;18.10;10.90;;;1.60;1.00;;;;;;10319646;28;20249;-78
2023/01/18 21:09:23;;;;;;;18.40;12.37;;;1.50;1.00;;;;;;10305496;28;20244;-79
2023/01/18 21:14:45;;;;;;;24.53;13.47;;;1.50;1.00;;;;;;10304857;28;20259;-78
2023/01/18 21:20:07;;;;;;;23.63;14.47;;;1.40;1.00;;;;;;10304169;28;20200;-79
2023/01/18 21:25:28;;;;;;;29.30;16.53;;;1.30;20.40;;;;;;10318284;28;20229;-79
2023/01/18 21:30:54;;;;;;;29.23;16.00;;;1.30;28.10;;;;;;10318375;28;20246;-79
2023/01/18 21:36:16;;;;;;;32.93;17.67;;;1.30;35.80;;;;;;10317802;28;20260;-77
2023/01/18 21:47:17;;;;;;;31.33;17.07;;;1.20;43.40;;;;;;10317786;28;20216;-79
2023/01/18 22:09:38;;;;;;;31.73;18.47;;;1.30;99.90;;;;;;10313216;28;20204;-80
2023/01/18 22:15:00;;;;;;;41.17;19.03;;;1.30;99.90;;;;;;10317174;28;20271;-78
2023/01/18 22:20:21;;;;;;;36.47;16.97;;;1.30;99.90;;;;;;10316764;28;20431;-79
2023/01/18 22:25:42;;;;;;;30.13;17.23;;;1.30;99.90;;;;;;10302004;28;20209;-78
2023/01/18 22:31:06;;;;;;;31.20;16.63;;;1.40;99.90;;;;;;10301640;28;20269;-79
2023/01/18 22:36:27;;;;;;;30.40;17.47;;;1.40;99.90;;;;;;10301788;28;20221;-79
2023/01/18 22:41:49;;;;;;;25.57;15.20;;;1.40;99.90;;;;;;10314689;28;20254;-79
2023/01/18 22:47:10;;;;;;;27.17;14.80;;;1.40;99.90;;;;;;10315666;28;20201;-78
2023/01/18 22:52:31;;;;;;;22.93;13.97;;;1.40;99.90;;;;;;10301185;28;20297;-79
2023/01/18 22:57:53;;;;;;;27.07;14.37;;;1.50;99.90;;;;;;10315047;28;20269;-78
2023/01/18 23:03:14;;;;;;;26.50;14.43;;;1.50;99.90;;;;;;10301143;28;20225;-79
2023/01/18 23:08:41;;;;;;;26.60;15.23;;;1.50;99.90;;;;;;10314349;28;20327;-78
2023/01/18 23:19:42;;;;;;;23.13;13.90;;;1.40;99.90;;;;;;10300009;28;20207;-79
2023/01/18 23:25:03;;;;;;;27.57;15.17;;;1.40;99.90;;;;;;10314308;28;20205;-79
2023/01/18 23:30:25;;;;;;;30.03;15.83;;;1.40;99.90;;;;;;10297768;28;20275;-79
2023/01/18 23:35:46;;;;;;;28.00;15.27;;;1.40;99.90;;;;;;10314691;28;20289;-79
2023/01/18 23:58:06;;;;;;;32.47;16.60;;;1.40;99.90;;;;;;10304575;28;20205;-78
